aviador You're here:

CYOJ Decoded Metar

HIGH LEVEL in AB, CANADA
Report Time2018-07-23 15:00:00
UTC Time2018-07-23 15:42:24
Flight Rules vfr VFR
Wind330° at 06 kt
W.Decomp.*RWY 31: 6.0 kt HW 0.1 kt LCW
W.Rank330° ranks 7
Current wind is below 330° avg. (6.5)
Visibility9999 m
Phenomena:N/A
Clouds:Scattered 055 Hf
Broken 260 Hf
Expected CloudBase > 2,400 ft AGL from Temp-Dew spread
Ceiling26,000 ft
Temp14°C (ISA +1)
Dew Point08°C (67% RH)
AAT11.4°C
QNH1028 hPa
Density Alt896 ft
Elevation1,109 ft
Report Wrong Elevation
Raw Report
CYOJ 231500Z 33006KT 15SM SCT055 BKN260 14/08 A3037 RMK SC3CI4
SLP295=

Extra information for CYOJ:More info

Metar Taf Metar & Taf Last 4 Metars F.Rules Stats Wind Profile Meteogram Temp Stats Airport Information Weather charts Add Link Nearby VenuesMetar ALERT Operation Metar Decoded Social comments